Time;durP1;ratioP1;P1;durP2;ratioP2;P2;SDS_P1;SDS_P2;PMS_P1;PMS_P2;Temp;Humidity;BMP_temperature;BMP_pressure;BME280_temperature;BME280_humidity;BME280_pressure;Samples;Min_cycle;Max_cycle;Signal;HPM_P1;HPM_P2
2024/02/17 00:02:05;;;;;;;8.13;5.00;;;12.60;99.90;;;;;;5011413;28;20481;-60
2024/02/17 00:04:33;;;;;;;5.93;5.27;;;12.60;99.90;;;;;;5015716;28;20503;-57
2024/02/17 00:07:01;;;;;;;5.70;4.50;;;12.50;99.90;;;;;;5008021;28;20442;-58
2024/02/17 00:09:28;;;;;;;6.27;4.97;;;12.50;99.90;;;;;;5007850;28;20579;-60
2024/02/17 00:11:55;;;;;;;8.37;4.90;;;12.60;99.90;;;;;;4999147;28;20470;-60
2024/02/17 00:14:22;;;;;;;7.67;5.10;;;12.60;99.90;;;;;;4996720;28;20525;-60
2024/02/17 00:16:49;;;;;;;9.17;6.07;;;12.60;99.90;;;;;;4997210;28;20447;-59
2024/02/17 00:19:16;;;;;;;7.13;5.13;;;12.60;99.90;;;;;;5006720;28;20551;-60
2024/02/17 00:21:44;;;;;;;6.50;5.73;;;12.60;99.90;;;;;;5006465;28;20529;-56
2024/02/17 00:24:11;;;;;;;9.37;5.70;;;12.60;99.90;;;;;;5016322;28;20528;-59
2024/02/17 00:26:38;;;;;;;8.40;5.03;;;12.60;99.90;;;;;;5015991;28;20457;-60
2024/02/17 00:29:05;;;;;;;6.70;5.60;;;12.60;99.90;;;;;;5005990;28;20466;-60
2024/02/17 00:31:32;;;;;;;7.90;5.77;;;12.60;99.90;;;;;;5006931;28;20473;-60
2024/02/17 00:33:59;;;;;;;6.87;5.30;;;12.60;99.90;;;;;;5019012;28;20929;-60
2024/02/17 00:36:26;;;;;;;5.63;4.77;;;12.60;99.90;;;;;;5003525;28;20478;-59
2024/02/17 00:38:54;;;;;;;9.50;5.67;;;12.50;99.90;;;;;;4998999;28;20457;-59
2024/02/17 00:41:21;;;;;;;8.63;5.60;;;12.50;99.90;;;;;;4996490;28;20960;-59
2024/02/17 00:43:48;;;;;;;7.33;4.67;;;12.60;99.90;;;;;;4996247;28;21010;-62
2024/02/17 00:46:16;;;;;;;7.80;5.50;;;12.50;99.90;;;;;;4996580;28;20992;-59
2024/02/17 00:48:43;;;;;;;8.20;5.03;;;12.50;99.90;;;;;;4998901;28;20443;-58
2024/02/17 00:51:09;;;;;;;7.70;5.03;;;12.50;99.90;;;;;;5003608;28;20935;-59
2024/02/17 00:53:38;;;;;;;6.00;4.20;;;12.50;99.90;;;;;;4996466;28;20481;-59
2024/02/17 00:56:07;;;;;;;7.10;6.40;;;12.50;99.90;;;;;;5004528;28;20862;-58
2024/02/17 00:58:34;;;;;;;5.50;4.60;;;12.40;99.90;;;;;;5012484;28;20448;-58
2024/02/17 01:01:01;;;;;;;5.73;4.60;;;12.50;99.90;;;;;;5015898;28;20827;-58
2024/02/17 01:03:27;;;;;;;7.13;5.13;;;12.50;99.90;;;;;;5015697;28;20975;-59
2024/02/17 01:05:55;;;;;;;6.03;4.90;;;12.50;99.90;;;;;;4996647;28;20442;-61
2024/02/17 01:08:22;;;;;;;5.77;4.70;;;12.40;99.90;;;;;;5011670;28;20993;-59
2024/02/17 01:10:49;;;;;;;7.77;5.43;;;12.30;99.90;;;;;;4997725;28;20477;-61
2024/02/17 01:13:17;;;;;;;7.00;5.20;;;12.30;99.90;;;;;;4996929;28;20977;-60
2024/02/17 01:15:45;;;;;;;6.37;4.20;;;12.20;99.90;;;;;;4996751;28;20454;-62
2024/02/17 01:18:12;;;;;;;6.40;4.53;;;12.20;99.90;;;;;;5002488;28;20477;-61
2024/02/17 01:20:38;;;;;;;5.27;3.97;;;12.20;99.90;;;;;;5015338;28;20551;-61
2024/02/17 01:23:06;;;;;;;7.27;4.73;;;12.20;99.90;;;;;;5016550;28;20453;-61
2024/02/17 01:25:33;;;;;;;5.43;4.40;;;12.20;99.90;;;;;;5018219;28;20441;-61
2024/02/17 01:28:00;;;;;;;5.03;3.10;;;12.20;99.90;;;;;;5000273;28;20821;-59
2024/02/17 01:30:28;;;;;;;5.77;3.80;;;12.20;99.90;;;;;;4999278;28;20493;-60
2024/02/17 01:32:55;;;;;;;4.53;3.10;;;12.20;99.90;;;;;;4996422;28;20450;-57
2024/02/17 01:35:22;;;;;;;3.97;3.17;;;12.10;99.90;;;;;;4996890;28;20450;-60
2024/02/17 01:37:48;;;;;;;5.83;3.20;;;12.10;99.90;;;;;;5010314;28;20465;-57
2024/02/17 01:40:17;;;;;;;6.30;3.07;;;12.10;99.90;;;;;;5015045;28;20528;-59
2024/02/17 01:42:44;;;;;;;4.73;3.07;;;12.00;99.90;;;;;;5016089;28;20489;-62
2024/02/17 01:45:11;;;;;;;3.50;2.80;;;12.00;99.90;;;;;;5016406;28;20533;-59
2024/02/17 01:47:41;;;;;;;4.80;3.07;;;12.00;99.90;;;;;;5007362;28;20445;-56
2024/02/17 01:50:09;;;;;;;3.00;2.40;;;12.00;99.90;;;;;;5016212;28;20844;-60
2024/02/17 01:52:36;;;;;;;2.53;2.23;;;12.00;99.90;;;;;;5015641;28;20453;-59
2024/02/17 01:55:07;;;;;;;5.37;2.90;;;12.00;99.90;;;;;;5011852;28;20443;-61
2024/02/17 01:57:35;;;;;;;5.87;2.93;;;12.00;99.90;;;;;;5019896;28;20484;-59
2024/02/17 02:00:04;;;;;;;7.23;2.80;;;11.90;99.90;;;;;;5016259;28;20544;-60
2024/02/17 02:02:33;;;;;;;3.60;2.70;;;11.90;99.90;;;;;;5017895;28;20437;-60
2024/02/17 02:05:02;;;;;;;3.33;2.70;;;11.80;99.90;;;;;;5017376;28;20512;-60
2024/02/17 02:07:29;;;;;;;4.30;2.57;;;11.90;99.90;;;;;;5016591;28;20525;-56
2024/02/17 02:09:56;;;;;;;3.03;2.73;;;11.90;99.90;;;;;;5019165;28;20481;-58
2024/02/17 02:12:23;;;;;;;2.30;2.10;;;11.90;99.90;;;;;;5013480;28;20473;-57
2024/02/17 02:15:06;;;;;;;2.40;2.10;;;11.80;99.90;;;;;;5011378;28;20497;-58
2024/02/17 02:17:33;;;;;;;3.30;2.67;;;11.90;99.90;;;;;;5003581;28;20882;-60
2024/02/17 02:20:01;;;;;;;4.23;3.23;;;11.90;99.90;;;;;;5000797;28;20492;-59
2024/02/17 02:22:28;;;;;;;3.17;2.87;;;11.90;99.90;;;;;;5008606;28;20453;-61
2024/02/17 02:24:58;;;;;;;4.43;3.23;;;11.80;99.90;;;;;;5000747;28;20828;-60
2024/02/17 02:27:27;;;;;;;3.90;2.93;;;11.80;99.90;;;;;;5007235;28;20468;-61
2024/02/17 02:29:56;;;;;;;3.30;2.30;;;11.70;99.90;;;;;;5008091;28;20951;-59
2024/02/17 02:32:25;;;;;;;5.63;2.83;;;11.70;99.90;;;;;;5017850;28;20457;-60
2024/02/17 02:34:53;;;;;;;3.23;2.77;;;11.70;99.90;;;;;;5008635;28;21008;-58
2024/02/17 02:37:21;;;;;;;4.43;2.87;;;11.70;99.90;;;;;;5005485;28;20476;-58
2024/02/17 02:39:47;;;;;;;3.30;2.47;;;11.70;99.90;;;;;;5018923;28;20508;-58
2024/02/17 02:42:14;;;;;;;4.00;2.70;;;11.70;99.90;;;;;;5020061;28;20457;-59
2024/02/17 02:44:43;;;;;;;3.63;3.27;;;11.70;99.90;;;;;;5002474;28;20473;-59
2024/02/17 02:47:10;;;;;;;7.33;3.77;;;11.70;99.90;;;;;;5005485;28;20446;-59
2024/02/17 02:49:36;;;;;;;4.70;3.77;;;11.60;99.90;;;;;;5017066;28;21032;-60
2024/02/17 02:52:04;;;;;;;8.80;4.30;;;11.60;99.90;;;;;;5008997;28;20442;-59
2024/02/17 02:54:31;;;;;;;5.03;3.87;;;11.60;99.90;;;;;;5000073;28;20442;-59
2024/02/17 02:56:57;;;;;;;5.37;3.30;;;11.50;99.90;;;;;;5012593;28;20476;-58
2024/02/17 02:59:24;;;;;;;5.47;4.13;;;11.50;99.90;;;;;;5020349;28;20468;-57
2024/02/17 03:01:53;;;;;;;5.93;3.30;;;11.50;99.90;;;;;;5020143;28;20489;-59
2024/02/17 03:04:19;;;;;;;9.10;5.77;;;11.40;99.90;;;;;;5020577;28;20863;-59
2024/02/17 03:06:46;;;;;;;5.70;4.00;;;11.40;99.90;;;;;;5020482;28;20530;-60
2024/02/17 03:09:14;;;;;;;5.43;3.60;;;11.40;99.90;;;;;;5022377;28;20531;-60
2024/02/17 03:11:42;;;;;;;4.70;3.83;;;11.40;99.90;;;;;;5019219;28;20438;-60
2024/02/17 03:14:09;;;;;;;3.93;3.17;;;11.40;99.90;;;;;;5019257;28;20455;-61
2024/02/17 03:16:39;;;;;;;5.13;3.90;;;11.40;99.90;;;;;;5019297;28;21000;-60
2024/02/17 03:19:07;;;;;;;6.67;4.17;;;11.40;99.90;;;;;;5017913;28;20858;-61
2024/02/17 03:21:34;;;;;;;6.17;4.00;;;11.30;99.90;;;;;;5001690;28;20482;-61
2024/02/17 03:24:01;;;;;;;6.53;4.13;;;11.20;99.90;;;;;;5012112;28;20500;-58
2024/02/17 03:26:28;;;;;;;5.23;4.43;;;11.20;99.90;;;;;;5019009;28;20472;-59
2024/02/17 03:28:55;;;;;;;5.13;3.90;;;11.20;99.90;;;;;;5017859;28;20511;-60
2024/02/17 03:31:23;;;;;;;5.57;4.30;;;11.10;99.90;;;;;;5003263;28;20558;-57
2024/02/17 03:33:50;;;;;;;6.73;4.60;;;11.10;99.90;;;;;;5011117;28;20973;-60
2024/02/17 03:36:19;;;;;;;5.87;3.97;;;11.10;99.90;;;;;;5017644;28;20474;-59
2024/02/17 03:38:47;;;;;;;5.43;4.00;;;11.10;99.90;;;;;;5008580;28;20881;-59
2024/02/17 03:41:15;;;;;;;7.00;5.10;;;11.10;99.90;;;;;;5018316;28;20504;-60
2024/02/17 03:43:42;;;;;;;5.77;3.70;;;11.10;99.90;;;;;;5017508;28;20464;-59
2024/02/17 03:46:09;;;;;;;4.40;3.87;;;11.10;99.90;;;;;;5012563;28;20445;-58
2024/02/17 03:48:37;;;;;;;8.50;4.10;;;11.10;99.90;;;;;;5006822;28;20594;-58
2024/02/17 03:51:04;;;;;;;8.77;5.40;;;11.10;99.90;;;;;;5020712;28;20462;-59
2024/02/17 03:53:32;;;;;;;9.23;4.87;;;11.20;99.90;;;;;;5007387;28;20484;-58
2024/02/17 03:56:00;;;;;;;5.60;4.30;;;11.20;99.90;;;;;;5001454;28;20887;-58
2024/02/17 03:58:27;;;;;;;6.37;4.07;;;11.20;99.90;;;;;;4997401;28;20450;-60
2024/02/17 04:00:54;;;;;;;7.50;5.40;;;11.30;99.90;;;;;;5006528;28;21044;-57
2024/02/17 04:03:21;;;;;;;8.33;5.20;;;11.20;99.90;;;;;;5013722;28;20559;-59
2024/02/17 04:05:47;;;;;;;4.70;3.60;;;11.30;99.90;;;;;;5018054;28;20973;-57
2024/02/17 04:08:14;;;;;;;5.00;4.13;;;11.30;99.90;;;;;;5018305;28;20446;-58
2024/02/17 04:10:43;;;;;;;6.70;4.10;;;11.30;99.90;;;;;;4999979;28;20509;-59
2024/02/17 04:13:10;;;;;;;6.10;4.80;;;11.30;99.90;;;;;;4999291;28;20578;-60
2024/02/17 04:15:38;;;;;;;6.53;4.30;;;11.30;99.90;;;;;;5015393;28;20960;-60
2024/02/17 04:18:09;;;;;;;7.40;4.47;;;11.30;99.90;;;;;;5013278;28;20458;-59
2024/02/17 04:20:38;;;;;;;6.93;4.80;;;11.30;99.90;;;;;;5016550;28;20489;-61
2024/02/17 04:23:05;;;;;;;6.30;4.97;;;11.30;99.90;;;;;;5014934;28;20446;-61
2024/02/17 04:25:33;;;;;;;7.00;5.37;;;11.30;99.90;;;;;;4999377;28;20501;-59
2024/02/17 04:28:03;;;;;;;6.90;4.90;;;11.30;99.90;;;;;;5010724;28;20442;-60
2024/02/17 04:30:30;;;;;;;7.23;5.83;;;11.30;99.90;;;;;;5017396;28;20540;-58
2024/02/17 04:32:57;;;;;;;7.00;5.00;;;11.30;99.90;;;;;;4996352;28;20971;-56
2024/02/17 04:35:25;;;;;;;7.63;5.10;;;11.30;99.90;;;;;;5013904;28;20449;-56
2024/02/17 04:37:52;;;;;;;7.43;4.70;;;11.20;99.90;;;;;;5026316;28;20472;-59
2024/02/17 04:40:19;;;;;;;6.93;4.97;;;11.20;99.90;;;;;;5005214;28;20473;-59
2024/02/17 04:42:47;;;;;;;8.07;5.10;;;11.30;99.90;;;;;;5016694;28;20452;-60
2024/02/17 04:45:15;;;;;;;9.30;5.60;;;11.30;99.90;;;;;;5000775;28;20902;-60
2024/02/17 04:47:42;;;;;;;7.97;4.90;;;11.30;99.90;;;;;;5000206;28;20477;-59
2024/02/17 04:50:11;;;;;;;8.80;5.50;;;11.20;99.90;;;;;;5013502;28;20502;-61
2024/02/17 04:52:38;;;;;;;8.57;5.50;;;11.20;99.90;;;;;;5002626;28;20458;-60
2024/02/17 04:55:06;;;;;;;8.53;6.00;;;11.20;99.90;;;;;;5019455;28;20534;-61
2024/02/17 04:57:32;;;;;;;7.30;5.30;;;11.20;99.90;;;;;;5019283;28;20529;-60
2024/02/17 04:59:59;;;;;;;14.87;6.03;;;11.20;99.90;;;;;;5017672;28;20466;-58
2024/02/17 05:02:28;;;;;;;6.60;4.73;;;11.20;99.90;;;;;;5017108;28;20495;-60
2024/02/17 05:04:55;;;;;;;7.33;5.23;;;11.10;99.90;;;;;;5009062;28;20437;-59
2024/02/17 05:07:21;;;;;;;9.63;5.27;;;11.10;99.90;;;;;;5015842;28;20531;-60
2024/02/17 05:09:48;;;;;;;7.77;5.07;;;11.10;99.90;;;;;;5005744;28;20573;-57
2024/02/17 05:12:15;;;;;;;8.10;4.83;;;11.10;99.90;;;;;;5004546;28;20525;-60
2024/02/17 05:14:42;;;;;;;7.20;4.90;;;11.10;99.90;;;;;;5004812;28;20466;-60
2024/02/17 05:17:09;;;;;;;8.67;5.80;;;11.10;99.90;;;;;;4996801;28;20538;-59
2024/02/17 05:19:37;;;;;;;6.80;4.20;;;11.10;99.90;;;;;;4995939;28;20473;-60
2024/02/17 05:22:04;;;;;;;9.70;4.67;;;11.00;99.90;;;;;;5005100;28;20489;-59
2024/02/17 05:24:31;;;;;;;7.27;4.87;;;11.00;99.90;;;;;;5014361;28;20458;-59
2024/02/17 05:26:58;;;;;;;9.07;5.37;;;11.00;99.90;;;;;;5008347;28;20545;-60
2024/02/17 05:29:25;;;;;;;10.60;5.53;;;11.00;99.90;;;;;;5000787;28;20540;-59
2024/02/17 05:31:52;;;;;;;8.60;4.80;;;10.90;99.90;;;;;;5008453;28;21526;-60
2024/02/17 05:34:19;;;;;;;7.23;5.40;;;10.90;99.90;;;;;;5018845;28;20475;-59
2024/02/17 05:36:47;;;;;;;7.33;5.03;;;10.90;99.90;;;;;;5018238;28;20997;-59
2024/02/17 05:39:14;;;;;;;6.40;4.30;;;10.90;99.90;;;;;;5018806;28;20564;-62
2024/02/17 05:41:42;;;;;;;9.53;5.37;;;10.90;99.90;;;;;;5018314;28;21020;-60
2024/02/17 05:44:09;;;;;;;7.60;4.60;;;10.80;99.90;;;;;;5011988;28;20441;-61
2024/02/17 05:46:36;;;;;;;8.33;4.90;;;10.70;99.90;;;;;;5018274;28;20487;-59
2024/02/17 05:49:03;;;;;;;10.37;5.73;;;10.70;99.90;;;;;;5016129;28;20821;-56
2024/02/17 05:51:30;;;;;;;8.67;4.70;;;10.70;99.90;;;;;;5017893;28;20460;-59
2024/02/17 05:53:58;;;;;;;9.03;4.53;;;10.60;99.90;;;;;;5001558;28;20448;-60
2024/02/17 05:56:25;;;;;;;5.33;4.47;;;10.60;99.90;;;;;;5016859;28;20448;-59
2024/02/17 05:58:52;;;;;;;10.10;5.33;;;10.60;99.90;;;;;;5005103;28;20458;-58
2024/02/17 06:01:19;;;;;;;10.57;4.47;;;10.60;99.90;;;;;;5011408;28;20488;-59
2024/02/17 06:03:46;;;;;;;10.10;4.67;;;10.60;99.90;;;;;;4998083;28;20449;-59
2024/02/17 06:06:13;;;;;;;6.57;4.27;;;10.50;99.90;;;;;;4997495;28;20482;-61
2024/02/17 06:08:40;;;;;;;13.10;5.93;;;10.50;99.90;;;;;;5006893;28;20449;-61
2024/02/17 06:11:08;;;;;;;7.57;4.43;;;10.40;99.90;;;;;;5010012;28;20483;-61
2024/02/17 06:13:36;;;;;;;11.53;5.50;;;10.40;99.90;;;;;;5016958;28;20532;-60
2024/02/17 06:16:06;;;;;;;6.23;4.10;;;10.30;99.90;;;;;;5013064;28;20518;-60
2024/02/17 06:21:21;;;;;;;8.87;4.47;;;10.40;99.90;;;;;;5004622;28;20512;-55
2024/02/17 06:23:48;;;;;;;6.13;3.77;;;10.40;99.90;;;;;;5017646;28;20524;-56
2024/02/17 06:26:26;;;;;;;7.37;3.90;;;10.50;99.90;;;;;;5018255;28;20982;-59
2024/02/17 06:28:54;;;;;;;8.23;4.00;;;10.50;99.90;;;;;;5018040;28;20468;-60
2024/02/17 06:31:22;;;;;;;5.60;4.13;;;10.50;99.90;;;;;;5018828;28;20442;-60
2024/02/17 06:33:49;;;;;;;6.67;3.60;;;10.50;99.90;;;;;;5018772;28;20481;-59
2024/02/17 06:36:16;;;;;;;9.00;4.10;;;10.50;99.90;;;;;;5017537;28;20516;-58
2024/02/17 06:38:45;;;;;;;9.50;4.23;;;10.50;99.90;;;;;;5017399;28;20445;-57
2024/02/17 06:41:13;;;;;;;7.47;4.43;;;10.50;99.90;;;;;;5015126;28;20550;-59
2024/02/17 06:43:41;;;;;;;8.13;4.33;;;10.40;99.90;;;;;;5016198;28;20539;-59
2024/02/17 06:46:11;;;;;;;6.03;3.83;;;10.40;99.90;;;;;;5015924;28;20573;-59
2024/02/17 06:48:38;;;;;;;6.40;4.00;;;10.40;99.90;;;;;;5015700;28;20468;-58
2024/02/17 06:51:05;;;;;;;5.73;4.00;;;10.50;99.90;;;;;;5020129;28;20480;-60
2024/02/17 06:53:33;;;;;;;6.10;3.80;;;10.50;99.90;;;;;;5012240;28;20532;-57
2024/02/17 06:56:00;;;;;;;4.70;3.77;;;10.50;99.90;;;;;;4999186;28;20465;-59
2024/02/17 06:58:27;;;;;;;7.00;3.87;;;10.50;99.90;;;;;;5015552;28;20461;-60
2024/02/17 07:00:55;;;;;;;5.60;4.17;;;10.60;99.90;;;;;;5008727;28;20820;-60
2024/02/17 07:03:22;;;;;;;6.67;4.37;;;10.60;99.90;;;;;;5008556;28;20873;-60
2024/02/17 07:05:49;;;;;;;6.97;4.20;;;10.60;99.90;;;;;;5020102;28;20449;-59
2024/02/17 07:08:16;;;;;;;5.10;3.60;;;10.60;99.90;;;;;;5007460;28;20697;-59
2024/02/17 07:10:43;;;;;;;6.30;3.97;;;10.60;99.90;;;;;;5020205;28;20543;-60
2024/02/17 07:13:10;;;;;;;8.57;4.53;;;10.60;99.90;;;;;;5004670;28;20452;-59
2024/02/17 07:15:37;;;;;;;5.10;3.77;;;10.60;99.90;;;;;;5011765;28;20453;-61
2024/02/17 07:18:06;;;;;;;7.43;3.63;;;10.60;99.90;;;;;;5002608;28;20449;-61
2024/02/17 07:20:33;;;;;;;6.03;3.13;;;10.50;99.90;;;;;;4999807;28;20877;-58
2024/02/17 07:23:01;;;;;;;6.50;3.90;;;10.50;99.90;;;;;;4998862;28;20482;-54
2024/02/17 07:25:29;;;;;;;3.90;2.73;;;10.50;99.90;;;;;;5009472;28;20921;-57
2024/02/17 07:27:57;;;;;;;9.00;3.40;;;10.50;99.90;;;;;;5001901;28;20952;-61
2024/02/17 07:30:25;;;;;;;8.23;3.80;;;10.60;99.90;;;;;;5003907;28;20464;-59
2024/02/17 07:32:52;;;;;;;6.07;3.80;;;10.60;99.90;;;;;;5007158;28;20443;-59
2024/02/17 07:35:21;;;;;;;7.00;3.90;;;10.60;99.90;;;;;;5006616;28;20808;-56
2024/02/17 07:37:48;;;;;;;5.00;3.53;;;10.50;99.90;;;;;;4999330;28;20541;-59
2024/02/17 07:40:15;;;;;;;9.57;3.43;;;10.50;99.90;;;;;;4999820;28;20539;-52
2024/02/17 07:42:42;;;;;;;6.47;3.93;;;10.50;99.90;;;;;;5008823;28;20485;-55
2024/02/17 07:45:10;;;;;;;4.70;3.53;;;10.50;99.90;;;;;;5018995;28;20438;-55
2024/02/17 07:47:37;;;;;;;3.23;2.77;;;10.40;99.90;;;;;;5011372;28;20518;-52
2024/02/17 07:50:06;;;;;;;5.30;3.43;;;10.50;99.90;;;;;;5003960;28;20552;-52
2024/02/17 07:52:35;;;;;;;6.27;3.20;;;10.50;99.90;;;;;;5021282;28;20530;-54
2024/02/17 07:55:02;;;;;;;7.73;4.00;;;10.50;99.90;;;;;;5000941;28;20525;-56
2024/02/17 07:57:29;;;;;;;7.20;3.33;;;10.50;99.90;;;;;;5014791;28;20915;-52
2024/02/17 07:59:56;;;;;;;4.10;3.43;;;10.60;99.90;;;;;;5018426;28;20895;-51
2024/02/17 08:02:23;;;;;;;6.63;3.60;;;10.60;99.90;;;;;;5019747;28;20518;-54
2024/02/17 08:04:50;;;;;;;4.70;2.97;;;10.60;99.90;;;;;;5008747;28;20914;-53
2024/02/17 08:07:17;;;;;;;4.03;3.10;;;10.60;99.90;;;;;;5003729;28;20457;-55
2024/02/17 08:09:47;;;;;;;6.60;3.53;;;10.60;99.90;;;;;;5011479;28;20919;-54
2024/02/17 08:12:15;;;;;;;3.57;2.73;;;10.60;99.90;;;;;;5024343;28;20787;-55
2024/02/17 08:14:42;;;;;;;4.63;2.70;;;10.70;99.90;;;;;;5011514;28;20536;-55
2024/02/17 08:17:09;;;;;;;7.33;2.70;;;10.70;99.90;;;;;;5006067;28;20446;-55
2024/02/17 08:19:37;;;;;;;3.83;2.80;;;10.70;99.90;;;;;;5000880;28;20880;-50
2024/02/17 08:22:04;;;;;;;2.90;1.73;;;10.70;99.90;;;;;;4999814;28;20602;-55
2024/02/17 08:24:31;;;;;;;5.57;2.67;;;10.70;99.90;;;;;;5009208;28;20447;-56
2024/02/17 08:26:59;;;;;;;3.90;2.20;;;10.70;99.90;;;;;;5013966;28;20523;-55
2024/02/17 08:29:26;;;;;;;10.03;2.43;;;10.80;99.90;;;;;;5005480;28;20457;-56
2024/02/17 08:31:53;;;;;;;4.00;1.70;;;10.80;99.90;;;;;;5010189;28;20474;-56
2024/02/17 08:34:20;;;;;;;4.70;1.90;;;10.80;99.90;;;;;;5008964;28;20512;-57
2024/02/17 08:36:47;;;;;;;2.20;1.83;;;10.80;99.90;;;;;;5016047;28;20449;-58
2024/02/17 08:39:14;;;;;;;2.97;1.90;;;10.90;99.90;;;;;;5008272;28;20465;-60
2024/02/17 08:41:41;;;;;;;1.83;1.60;;;10.90;99.90;;;;;;5005691;28;20560;-60
2024/02/17 08:44:10;;;;;;;4.03;1.80;;;10.90;99.90;;;;;;5011134;28;20458;-60
2024/02/17 08:46:37;;;;;;;3.47;1.97;;;10.90;99.90;;;;;;5001999;28;20442;-56
2024/02/17 08:49:04;;;;;;;4.10;1.97;;;10.90;99.90;;;;;;5004843;28;20507;-60
2024/02/17 08:51:31;;;;;;;3.27;1.70;;;10.90;99.90;;;;;;5001399;28;20978;-60
2024/02/17 08:53:58;;;;;;;2.40;1.70;;;11.00;99.90;;;;;;5010546;28;20488;-56
2024/02/17 08:56:25;;;;;;;2.60;1.70;;;10.90;99.90;;;;;;5007737;28;21004;-59
2024/02/17 08:58:52;;;;;;;2.07;1.20;;;10.90;99.90;;;;;;5011398;28;20473;-59
2024/02/17 09:01:20;;;;;;;2.63;1.60;;;10.90;99.90;;;;;;5007589;28;20470;-56
2024/02/17 09:03:47;;;;;;;3.10;1.63;;;10.90;99.90;;;;;;5006381;28;20889;-59
2024/02/17 09:06:15;;;;;;;6.20;1.80;;;10.80;99.90;;;;;;5010237;28;20453;-60
2024/02/17 09:08:42;;;;;;;1.70;1.10;;;10.80;99.90;;;;;;5014606;28;20452;-60
2024/02/17 09:11:09;;;;;;;1.67;1.33;;;10.80;99.90;;;;;;5017380;28;20590;-59
2024/02/17 09:13:36;;;;;;;2.30;1.40;;;10.90;99.90;;;;;;5020698;28;20483;-59
2024/02/17 09:16:06;;;;;;;6.80;1.57;;;10.90;99.90;;;;;;5016622;28;20809;-58
2024/02/17 09:18:35;;;;;;;2.87;1.50;;;10.80;99.90;;;;;;5014950;28;21132;-57
2024/02/17 09:21:02;;;;;;;1.40;1.20;;;10.70;99.90;;;;;;5003161;28;20451;-59
2024/02/17 09:23:29;;;;;;;1.70;1.07;;;10.80;99.90;;;;;;4995969;28;21025;-60
2024/02/17 09:25:56;;;;;;;1.40;1.10;;;10.70;99.90;;;;;;5005133;28;20437;-61
2024/02/17 09:28:23;;;;;;;1.80;1.03;;;10.70;99.90;;;;;;5003945;28;20462;-60
2024/02/17 09:30:52;;;;;;;1.00;0.80;;;10.70;99.90;;;;;;5000681;28;20467;-59
2024/02/17 09:33:20;;;;;;;1.50;1.20;;;10.80;99.90;;;;;;4995252;28;20814;-60
2024/02/17 09:35:48;;;;;;;1.47;0.90;;;10.80;99.90;;;;;;4996579;28;20483;-59
2024/02/17 09:38:15;;;;;;;1.30;0.90;;;10.90;99.90;;;;;;4996282;28;20443;-60
2024/02/17 09:40:42;;;;;;;1.10;0.80;;;11.10;99.90;;;;;;4995903;28;20498;-58
2024/02/17 09:48:20;;;;;;;2.50;0.80;;;11.50;99.90;;;;;;4959407;26;20480;-60
2024/02/17 09:50:50;;;;;;;1.50;0.87;;;11.60;99.90;;;;;;5037343;28;20471;-61
2024/02/17 09:53:19;;;;;;;1.00;0.70;;;11.60;99.90;;;;;;5035630;28;20468;-60
2024/02/17 09:55:47;;;;;;;3.07;1.10;;;11.60;99.90;;;;;;5035900;28;20479;-60
2024/02/17 09:58:14;;;;;;;2.33;1.20;;;11.70;99.90;;;;;;5035713;28;20531;-62
2024/02/17 10:00:59;;;;;;;1.67;1.03;;;12.10;99.90;;;;;;5039045;28;20452;-59
2024/02/17 10:03:47;;;;;;;1.77;1.20;;;12.40;99.90;;;;;;5035289;28;20506;-59
2024/02/17 10:06:19;;;;;;;1.60;1.00;;;12.30;99.90;;;;;;5044084;28;20447;-58
2024/02/17 10:08:50;;;;;;;1.30;1.00;;;13.00;99.90;;;;;;5047184;28;20495;-60
2024/02/17 10:11:18;;;;;;;1.20;1.00;;;13.90;99.90;;;;;;5039872;28;20772;-59
2024/02/17 10:13:57;;;;;;;1.90;1.20;;;14.80;99.90;;;;;;5036777;28;20448;-60
2024/02/17 10:16:24;;;;;;;2.00;0.90;;;15.50;99.90;;;;;;5036930;28;20467;-58
2024/02/17 10:18:51;;;;;;;2.23;1.23;;;15.50;99.90;;;;;;5042631;28;20460;-58
2024/02/17 10:21:23;;;;;;;1.47;1.07;;;15.30;99.90;;;;;;5047219;28;21000;-60
2024/02/17 10:23:50;;;;;;;1.50;1.07;;;15.10;99.90;;;;;;5039680;28;20510;-57
2024/02/17 10:26:20;;;;;;;1.30;0.90;;;15.50;99.90;;;;;;5037043;28;20983;-59
2024/02/17 10:28:54;;;;;;;1.13;0.80;;;15.70;99.90;;;;;;5034345;28;20464;-58
2024/02/17 10:31:24;;;;;;;2.80;1.33;;;15.20;99.90;;;;;;5039211;28;20514;-57
2024/02/17 10:33:51;;;;;;;1.87;1.17;;;15.10;99.90;;;;;;5044417;28;20544;-58
2024/02/17 10:36:22;;;;;;;1.73;1.10;;;15.40;99.90;;;;;;5036932;28;20467;-60
2024/02/17 10:38:50;;;;;;;1.30;0.93;;;15.80;99.90;;;;;;5035474;28;20460;-59
2024/02/17 10:41:19;;;;;;;1.23;0.93;;;15.50;99.90;;;;;;5040070;28;20475;-60
2024/02/17 10:43:47;;;;;;;1.00;0.80;;;15.70;99.90;;;;;;5038177;28;20476;-60
2024/02/17 10:46:19;;;;;;;1.10;0.80;;;15.90;99.90;;;;;;5039164;28;20448;-59
2024/02/17 10:48:54;;;;;;;2.90;1.00;;;16.20;99.90;;;;;;5041640;28;20500;-54
2024/02/17 10:51:23;;;;;;;1.13;0.93;;;16.60;99.90;;;;;;5036219;28;20452;-55
2024/02/17 10:53:59;;;;;;;1.77;1.00;;;17.20;99.90;;;;;;5040523;28;20479;-57
2024/02/17 10:56:27;;;;;;;2.97;0.90;;;17.80;99.20;;;;;;5039247;28;20440;-58
2024/02/17 10:58:56;;;;;;;2.77;1.20;;;17.70;95.80;;;;;;5038760;28;20500;-55
2024/02/17 11:01:27;;;;;;;1.10;0.80;;;16.90;97.20;;;;;;5042682;28;20854;-51
2024/02/17 11:03:56;;;;;;;1.57;0.90;;;16.00;98.80;;;;;;5041694;28;20572;-54
2024/02/17 11:06:25;;;;;;;1.57;1.10;;;15.60;99.90;;;;;;5030134;28;20536;-57
2024/02/17 11:08:52;;;;;;;0.97;0.70;;;15.30;99.90;;;;;;5044987;28;20483;-52
2024/02/17 11:11:23;;;;;;;1.00;0.77;;;14.90;99.90;;;;;;5038667;28;20439;-53
2024/02/17 11:13:51;;;;;;;4.47;1.30;;;15.00;99.90;;;;;;5036738;28;20443;-53
2024/02/17 11:16:18;;;;;;;5.70;1.00;;;15.20;99.90;;;;;;5037688;28;20441;-54
2024/02/17 11:18:46;;;;;;;1.10;0.80;;;15.40;99.90;;;;;;5035724;28;20464;-54
2024/02/17 11:21:13;;;;;;;1.53;1.00;;;15.50;99.90;;;;;;5037842;28;20503;-56
2024/02/17 11:23:43;;;;;;;1.20;0.90;;;15.10;99.90;;;;;;5036802;28;20915;-58
2024/02/17 11:26:15;;;;;;;1.20;0.83;;;14.70;99.90;;;;;;5036614;28;20487;-60
2024/02/17 11:28:42;;;;;;;1.00;0.60;;;14.40;99.90;;;;;;5036618;28;20529;-56
2024/02/17 11:31:10;;;;;;;1.73;1.00;;;14.10;99.90;;;;;;5036290;28;20448;-57
2024/02/17 11:33:37;;;;;;;1.00;0.80;;;13.70;99.90;;;;;;5035990;28;20448;-60
2024/02/17 11:36:08;;;;;;;1.00;0.80;;;13.40;99.90;;;;;;5036505;28;20483;-61
2024/02/17 11:38:36;;;;;;;1.87;0.80;;;13.20;99.90;;;;;;5036328;28;20487;-56
2024/02/17 11:41:05;;;;;;;3.80;1.10;;;13.20;99.90;;;;;;5036594;28;20476;-60
2024/02/17 11:43:34;;;;;;;1.03;0.73;;;13.10;99.90;;;;;;5036455;28;20490;-60
2024/02/17 11:46:03;;;;;;;0.90;0.70;;;12.90;99.90;;;;;;5036685;28;20479;-60
2024/02/17 11:48:32;;;;;;;7.40;1.17;;;12.80;99.90;;;;;;5036494;28;20488;-59
2024/02/17 11:51:15;;;;;;;1.93;0.80;;;12.80;99.90;;;;;;5036361;28;20441;-59
2024/02/17 11:53:45;;;;;;;1.67;0.80;;;12.60;99.90;;;;;;5035544;28;20857;-59
2024/02/17 11:56:14;;;;;;;1.50;1.00;;;12.30;99.90;;;;;;5036441;28;20511;-59
2024/02/17 11:58:41;;;;;;;5.30;1.50;;;12.10;99.90;;;;;;5035304;28;20824;-58
2024/02/17 12:01:08;;;;;;;1.40;1.00;;;12.00;99.90;;;;;;5035834;28;20799;-59
2024/02/17 12:03:35;;;;;;;1.80;1.60;;;11.90;99.90;;;;;;5036428;28;20484;-59
2024/02/17 12:06:02;;;;;;;3.90;1.27;;;11.60;99.90;;;;;;5036246;28;20991;-59
2024/02/17 12:08:30;;;;;;;1.40;1.10;;;11.40;99.90;;;;;;5035794;28;20448;-58
2024/02/17 12:10:58;;;;;;;1.90;1.13;;;11.20;99.90;;;;;;5035199;28;20449;-59
2024/02/17 12:13:27;;;;;;;5.83;1.70;;;11.20;99.90;;;;;;5034783;28;20441;-58
2024/02/17 12:15:54;;;;;;;3.47;1.20;;;11.10;99.90;;;;;;5035340;28;20539;-59
2024/02/17 12:18:22;;;;;;;4.30;1.47;;;11.00;99.90;;;;;;5035025;28;20929;-60
2024/02/17 12:20:51;;;;;;;6.00;2.70;;;10.90;99.90;;;;;;5034492;28;20468;-59
2024/02/17 12:23:18;;;;;;;2.40;1.27;;;10.90;99.90;;;;;;5034836;28;20483;-57
2024/02/17 12:25:45;;;;;;;13.00;5.00;;;10.80;99.90;;;;;;5034847;28;20449;-59
2024/02/17 12:28:14;;;;;;;3.87;1.30;;;10.80;99.90;;;;;;5035676;28;20456;-58
2024/02/17 12:30:48;;;;;;;10.83;1.70;;;10.70;99.90;;;;;;5036216;28;20507;-59
2024/02/17 12:33:19;;;;;;;7.93;1.63;;;10.80;99.90;;;;;;5036267;28;20475;-57
2024/02/17 12:35:47;;;;;;;5.10;1.43;;;10.80;99.90;;;;;;5037556;28;20917;-57
2024/02/17 12:38:17;;;;;;;1.83;0.90;;;10.90;99.90;;;;;;5037122;28;20440;-58
2024/02/17 12:40:45;;;;;;;1.80;1.23;;;10.80;99.90;;;;;;5036050;28;20465;-61
2024/02/17 12:43:19;;;;;;;7.47;1.47;;;10.90;99.90;;;;;;5036471;28;20475;-61
2024/02/17 12:45:48;;;;;;;3.43;1.10;;;10.90;99.90;;;;;;5035423;28;20464;-58
2024/02/17 12:48:15;;;;;;;6.57;2.20;;;10.90;99.90;;;;;;5035404;28;20468;-59
2024/02/17 12:50:42;;;;;;;7.13;1.20;;;11.00;99.90;;;;;;5034708;28;20490;-58
2024/02/17 12:53:15;;;;;;;2.40;1.10;;;10.90;99.90;;;;;;5035260;28;20448;-58
2024/02/17 12:55:42;;;;;;;8.77;1.30;;;10.80;99.90;;;;;;5035378;28;20441;-59
2024/02/17 13:00:52;;;;;;;8.83;1.30;;;10.70;99.90;;;;;;4303185;26;21040;-63